Terminal Aerodrome Forecast
Issued by NWS Topeka, KS

Home | Current Version | Previous Version | Graphics & Text | Print | Product List | Glossary On
Versions: 1 2 3 4 5 6 7 8 9 10 11 12 13 14 15 16
000
FTUS43 KTOP 231100
TAFTOP
TAF
KTOP 231120Z 2312/2412 13008KT P6SM VCSH SCT007 OVC015
     FM231300 12008KT P6SM VCSH BKN008 OVC015
     FM231700 13011KT P6SM SHRA BKN015 OVC025
     FM240100 10010KT 4SM RA VCTS BKN015CB OVC025
      TEMPO 2405/2409 1SM +TSRA BKN005CB=

USA.gov is the U.S. government's official web portal to all federal, state and local government web resources and services.